sensor_id;sensor_type;location;lat;lon;timestamp;P1;durP1;ratioP1;P2;durP2;ratioP2
22652;SDS011;11493;43.344;26.226;2023-11-18T00:00:01;18.02;;;13.20;;
22652;SDS011;11493;43.344;26.226;2023-11-18T00:02:30;20.23;;;12.80;;
22652;SDS011;11493;43.344;26.226;2023-11-18T00:05:00;15.90;;;11.85;;
22652;SDS011;11493;43.344;26.226;2023-11-18T00:07:29;16.23;;;11.50;;
22652;SDS011;11493;43.344;26.226;2023-11-18T00:09:56;13.13;;;11.20;;
22652;SDS011;11493;43.344;26.226;2023-11-18T00:12:23;16.67;;;12.40;;
22652;SDS011;11493;43.344;26.226;2023-11-18T00:14:51;14.32;;;11.80;;
22652;SDS011;11493;43.344;26.226;2023-11-18T00:17:17;11.95;;;10.75;;
22652;SDS011;11493;43.344;26.226;2023-11-18T00:19:46;13.43;;;10.10;;
22652;SDS011;11493;43.344;26.226;2023-11-18T00:22:14;11.98;;;9.50;;
22652;SDS011;11493;43.344;26.226;2023-11-18T00:24:41;10.52;;;9.25;;
22652;SDS011;11493;43.344;26.226;2023-11-18T00:27:08;9.10;;;7.93;;
22652;SDS011;11493;43.344;26.226;2023-11-18T00:29:35;9.38;;;7.28;;
22652;SDS011;11493;43.344;26.226;2023-11-18T00:32:03;9.70;;;8.15;;
22652;SDS011;11493;43.344;26.226;2023-11-18T00:34:31;8.52;;;7.72;;
22652;SDS011;11493;43.344;26.226;2023-11-18T00:36:59;9.32;;;7.90;;
22652;SDS011;11493;43.344;26.226;2023-11-18T00:39:27;10.85;;;8.02;;
22652;SDS011;11493;43.344;26.226;2023-11-18T00:41:54;10.75;;;9.65;;
22652;SDS011;11493;43.344;26.226;2023-11-18T00:44:22;10.07;;;9.18;;
22652;SDS011;11493;43.344;26.226;2023-11-18T00:46:49;12.68;;;11.07;;
22652;SDS011;11493;43.344;26.226;2023-11-18T00:49:17;15.85;;;12.23;;
22652;SDS011;11493;43.344;26.226;2023-11-18T00:51:44;15.43;;;11.40;;
22652;SDS011;11493;43.344;26.226;2023-11-18T00:54:11;15.73;;;12.30;;
22652;SDS011;11493;43.344;26.226;2023-11-18T00:56:39;15.55;;;12.77;;
22652;SDS011;11493;43.344;26.226;2023-11-18T00:59:06;16.05;;;12.45;;
22652;SDS011;11493;43.344;26.226;2023-11-18T01:01:33;16.45;;;13.10;;
22652;SDS011;11493;43.344;26.226;2023-11-18T01:04:01;18.98;;;13.02;;
22652;SDS011;11493;43.344;26.226;2023-11-18T01:06:29;22.70;;;15.45;;
22652;SDS011;11493;43.344;26.226;2023-11-18T01:08:56;28.08;;;17.95;;
22652;SDS011;11493;43.344;26.226;2023-11-18T01:11:23;33.38;;;18.85;;
22652;SDS011;11493;43.344;26.226;2023-11-18T01:13:50;36.80;;;23.13;;
22652;SDS011;11493;43.344;26.226;2023-11-18T01:16:18;36.72;;;22.73;;
22652;SDS011;11493;43.344;26.226;2023-11-18T01:18:46;36.28;;;22.92;;
22652;SDS011;11493;43.344;26.226;2023-11-18T01:21:13;38.63;;;22.65;;
22652;SDS011;11493;43.344;26.226;2023-11-18T01:23:40;38.95;;;23.92;;
22652;SDS011;11493;43.344;26.226;2023-11-18T01:26:09;40.05;;;23.70;;
22652;SDS011;11493;43.344;26.226;2023-11-18T01:28:38;38.55;;;24.25;;
22652;SDS011;11493;43.344;26.226;2023-11-18T01:31:10;40.63;;;23.83;;
22652;SDS011;11493;43.344;26.226;2023-11-18T01:33:40;34.20;;;22.30;;
22652;SDS011;11493;43.344;26.226;2023-11-18T01:36:08;34.08;;;20.40;;
22652;SDS011;11493;43.344;26.226;2023-11-18T01:38:36;25.45;;;17.67;;
22652;SDS011;11493;43.344;26.226;2023-11-18T01:41:04;23.58;;;17.30;;
22652;SDS011;11493;43.344;26.226;2023-11-18T01:43:32;26.63;;;16.33;;
22652;SDS011;11493;43.344;26.226;2023-11-18T01:45:59;21.65;;;16.80;;
22652;SDS011;11493;43.344;26.226;2023-11-18T01:48:32;20.73;;;15.07;;
22652;SDS011;11493;43.344;26.226;2023-11-18T01:51:03;21.42;;;15.70;;
22652;SDS011;11493;43.344;26.226;2023-11-18T01:53:34;18.83;;;14.35;;
22652;SDS011;11493;43.344;26.226;2023-11-18T01:56:03;25.20;;;16.50;;
22652;SDS011;11493;43.344;26.226;2023-11-18T01:58:32;19.92;;;15.50;;
22652;SDS011;11493;43.344;26.226;2023-11-18T02:00:59;20.27;;;15.05;;
22652;SDS011;11493;43.344;26.226;2023-11-18T02:03:27;22.65;;;15.45;;
22652;SDS011;11493;43.344;26.226;2023-11-18T02:05:54;19.92;;;15.07;;
22652;SDS011;11493;43.344;26.226;2023-11-18T02:08:22;19.38;;;14.98;;
22652;SDS011;11493;43.344;26.226;2023-11-18T02:10:54;19.95;;;14.90;;
22652;SDS011;11493;43.344;26.226;2023-11-18T02:13:29;16.10;;;13.50;;
22652;SDS011;11493;43.344;26.226;2023-11-18T02:16:00;17.63;;;13.40;;
22652;SDS011;11493;43.344;26.226;2023-11-18T02:18:30;19.08;;;14.13;;
22652;SDS011;11493;43.344;26.226;2023-11-18T02:20:59;19.80;;;13.93;;
22652;SDS011;11493;43.344;26.226;2023-11-18T02:23:26;18.45;;;14.30;;
22652;SDS011;11493;43.344;26.226;2023-11-18T02:25:54;18.70;;;14.13;;
22652;SDS011;11493;43.344;26.226;2023-11-18T02:28:26;16.90;;;13.70;;
22652;SDS011;11493;43.344;26.226;2023-11-18T02:31:13;15.82;;;12.25;;
22652;SDS011;11493;43.344;26.226;2023-11-18T02:36:23;17.35;;;13.02;;
22652;SDS011;11493;43.344;26.226;2023-11-18T02:38:52;16.10;;;12.05;;
22652;SDS011;11493;43.344;26.226;2023-11-18T02:41:21;16.75;;;13.43;;
22652;SDS011;11493;43.344;26.226;2023-11-18T02:43:50;14.85;;;11.90;;
22652;SDS011;11493;43.344;26.226;2023-11-18T02:46:17;14.70;;;11.77;;
22652;SDS011;11493;43.344;26.226;2023-11-18T02:48:46;14.18;;;12.13;;
22652;SDS011;11493;43.344;26.226;2023-11-18T02:51:13;21.70;;;12.90;;
22652;SDS011;11493;43.344;26.226;2023-11-18T02:53:43;16.83;;;13.20;;
22652;SDS011;11493;43.344;26.226;2023-11-18T02:56:11;16.35;;;14.00;;
22652;SDS011;11493;43.344;26.226;2023-11-18T02:58:38;19.70;;;14.73;;
22652;SDS011;11493;43.344;26.226;2023-11-18T03:01:06;16.38;;;13.82;;
22652;SDS011;11493;43.344;26.226;2023-11-18T03:03:33;17.73;;;14.38;;
22652;SDS011;11493;43.344;26.226;2023-11-18T03:06:01;18.70;;;13.52;;
22652;SDS011;11493;43.344;26.226;2023-11-18T03:08:28;17.30;;;14.27;;
22652;SDS011;11493;43.344;26.226;2023-11-18T03:10:56;16.90;;;13.32;;
22652;SDS011;11493;43.344;26.226;2023-11-18T03:13:24;15.63;;;13.00;;
22652;SDS011;11493;43.344;26.226;2023-11-18T03:15:52;12.80;;;11.27;;
22652;SDS011;11493;43.344;26.226;2023-11-18T03:18:19;15.85;;;11.65;;
22652;SDS011;11493;43.344;26.226;2023-11-18T03:20:47;12.88;;;11.40;;
22652;SDS011;11493;43.344;26.226;2023-11-18T03:23:15;11.55;;;10.38;;
22652;SDS011;11493;43.344;26.226;2023-11-18T03:25:42;11.65;;;10.27;;
22652;SDS011;11493;43.344;26.226;2023-11-18T03:28:11;14.20;;;9.95;;
22652;SDS011;11493;43.344;26.226;2023-11-18T03:30:38;11.52;;;10.32;;
22652;SDS011;11493;43.344;26.226;2023-11-18T03:33:05;10.35;;;9.30;;
22652;SDS011;11493;43.344;26.226;2023-11-18T03:35:32;10.65;;;9.40;;
22652;SDS011;11493;43.344;26.226;2023-11-18T03:37:59;9.65;;;8.65;;
22652;SDS011;11493;43.344;26.226;2023-11-18T03:40:27;10.02;;;9.02;;
22652;SDS011;11493;43.344;26.226;2023-11-18T03:42:55;9.10;;;7.82;;
22652;SDS011;11493;43.344;26.226;2023-11-18T03:45:25;8.35;;;7.10;;
22652;SDS011;11493;43.344;26.226;2023-11-18T03:47:52;7.95;;;6.72;;
22652;SDS011;11493;43.344;26.226;2023-11-18T03:50:19;7.22;;;6.60;;
22652;SDS011;11493;43.344;26.226;2023-11-18T03:52:46;8.20;;;6.97;;
22652;SDS011;11493;43.344;26.226;2023-11-18T03:55:13;7.03;;;6.25;;
22652;SDS011;11493;43.344;26.226;2023-11-18T03:57:40;7.20;;;6.50;;
22652;SDS011;11493;43.344;26.226;2023-11-18T04:00:07;7.45;;;6.75;;
22652;SDS011;11493;43.344;26.226;2023-11-18T04:02:41;6.28;;;5.78;;
22652;SDS011;11493;43.344;26.226;2023-11-18T04:05:08;6.43;;;5.88;;
22652;SDS011;11493;43.344;26.226;2023-11-18T04:07:35;7.07;;;6.15;;
22652;SDS011;11493;43.344;26.226;2023-11-18T04:10:02;6.60;;;6.00;;
22652;SDS011;11493;43.344;26.226;2023-11-18T04:12:33;6.13;;;5.53;;
22652;SDS011;11493;43.344;26.226;2023-11-18T04:15:00;5.07;;;4.57;;
22652;SDS011;11493;43.344;26.226;2023-11-18T04:17:27;7.75;;;4.57;;
22652;SDS011;11493;43.344;26.226;2023-11-18T04:19:57;4.20;;;3.90;;
22652;SDS011;11493;43.344;26.226;2023-11-18T04:22:24;4.97;;;4.47;;
22652;SDS011;11493;43.344;26.226;2023-11-18T04:24:52;6.28;;;4.13;;
22652;SDS011;11493;43.344;26.226;2023-11-18T04:27:19;5.55;;;4.65;;
22652;SDS011;11493;43.344;26.226;2023-11-18T04:29:46;4.82;;;4.43;;
22652;SDS011;11493;43.344;26.226;2023-11-18T04:32:14;3.92;;;3.60;;
22652;SDS011;11493;43.344;26.226;2023-11-18T04:34:41;4.00;;;3.53;;
22652;SDS011;11493;43.344;26.226;2023-11-18T04:37:09;3.00;;;2.80;;
22652;SDS011;11493;43.344;26.226;2023-11-18T04:39:36;3.15;;;2.50;;
22652;SDS011;11493;43.344;26.226;2023-11-18T04:42:03;4.05;;;2.72;;
22652;SDS011;11493;43.344;26.226;2023-11-18T04:44:31;2.60;;;2.40;;
22652;SDS011;11493;43.344;26.226;2023-11-18T04:46:58;2.70;;;2.50;;
22652;SDS011;11493;43.344;26.226;2023-11-18T04:49:26;2.80;;;2.60;;
22652;SDS011;11493;43.344;26.226;2023-11-18T04:51:53;3.08;;;2.78;;
22652;SDS011;11493;43.344;26.226;2023-11-18T04:54:20;5.88;;;3.72;;
22652;SDS011;11493;43.344;26.226;2023-11-18T04:56:48;5.88;;;2.92;;
22652;SDS011;11493;43.344;26.226;2023-11-18T04:59:14;3.70;;;3.40;;
22652;SDS011;11493;43.344;26.226;2023-11-18T05:01:42;3.00;;;2.80;;
22652;SDS011;11493;43.344;26.226;2023-11-18T05:04:09;3.78;;;3.17;;
22652;SDS011;11493;43.344;26.226;2023-11-18T05:06:36;3.05;;;2.70;;
22652;SDS011;11493;43.344;26.226;2023-11-18T05:09:03;3.13;;;2.83;;
22652;SDS011;11493;43.344;26.226;2023-11-18T05:11:34;2.58;;;2.38;;
22652;SDS011;11493;43.344;26.226;2023-11-18T05:14:02;3.78;;;2.30;;
22652;SDS011;11493;43.344;26.226;2023-11-18T05:16:33;2.30;;;2.08;;
22652;SDS011;11493;43.344;26.226;2023-11-18T05:19:01;2.10;;;1.75;;
22652;SDS011;11493;43.344;26.226;2023-11-18T05:21:28;4.70;;;2.22;;
22652;SDS011;11493;43.344;26.226;2023-11-18T05:23:56;2.38;;;2.17;;
22652;SDS011;11493;43.344;26.226;2023-11-18T05:26:24;2.28;;;2.05;;
22652;SDS011;11493;43.344;26.226;2023-11-18T05:28:51;1.77;;;1.67;;
22652;SDS011;11493;43.344;26.226;2023-11-18T05:31:18;1.70;;;1.60;;
22652;SDS011;11493;43.344;26.226;2023-11-18T05:33:45;2.08;;;1.35;;
22652;SDS011;11493;43.344;26.226;2023-11-18T05:36:18;1.50;;;1.40;;
22652;SDS011;11493;43.344;26.226;2023-11-18T05:38:54;2.17;;;1.27;;
22652;SDS011;11493;43.344;26.226;2023-11-18T05:41:22;1.75;;;1.65;;
22652;SDS011;11493;43.344;26.226;2023-11-18T05:43:56;1.77;;;1.50;;
22652;SDS011;11493;43.344;26.226;2023-11-18T05:46:27;1.92;;;1.42;;
22652;SDS011;11493;43.344;26.226;2023-11-18T05:49:01;1.33;;;1.23;;
22652;SDS011;11493;43.344;26.226;2023-11-18T05:51:34;1.60;;;1.50;;
22652;SDS011;11493;43.344;26.226;2023-11-18T05:54:02;2.55;;;1.50;;
22652;SDS011;11493;43.344;26.226;2023-11-18T05:56:29;1.50;;;1.40;;
22652;SDS011;11493;43.344;26.226;2023-11-18T05:58:56;1.83;;;1.33;;
22652;SDS011;11493;43.344;26.226;2023-11-18T06:01:24;1.50;;;1.30;;
22652;SDS011;11493;43.344;26.226;2023-11-18T06:03:54;2.13;;;1.40;;
22652;SDS011;11493;43.344;26.226;2023-11-18T06:06:21;1.83;;;1.50;;
22652;SDS011;11493;43.344;26.226;2023-11-18T06:08:50;2.00;;;1.70;;
22652;SDS011;11493;43.344;26.226;2023-11-18T06:11:19;1.30;;;1.20;;
22652;SDS011;11493;43.344;26.226;2023-11-18T06:13:47;1.48;;;1.38;;
22652;SDS011;11493;43.344;26.226;2023-11-18T06:16:16;1.42;;;1.35;;
22652;SDS011;11493;43.344;26.226;2023-11-18T06:18:48;1.60;;;1.50;;
22652;SDS011;11493;43.344;26.226;2023-11-18T06:21:17;1.75;;;1.65;;
22652;SDS011;11493;43.344;26.226;2023-11-18T06:23:47;1.63;;;1.52;;
22652;SDS011;11493;43.344;26.226;2023-11-18T06:26:15;2.03;;;1.30;;
22652;SDS011;11493;43.344;26.226;2023-11-18T06:28:43;1.50;;;1.40;;
22652;SDS011;11493;43.344;26.226;2023-11-18T06:31:11;1.75;;;1.45;;
22652;SDS011;11493;43.344;26.226;2023-11-18T06:33:39;2.05;;;1.60;;
22652;SDS011;11493;43.344;26.226;2023-11-18T06:38:41;1.60;;;1.10;;
22652;SDS011;11493;43.344;26.226;2023-11-18T06:41:08;3.38;;;1.55;;
22652;SDS011;11493;43.344;26.226;2023-11-18T06:43:38;1.60;;;1.50;;
22652;SDS011;11493;43.344;26.226;2023-11-18T06:46:24;1.20;;;1.10;;
22652;SDS011;11493;43.344;26.226;2023-11-18T06:48:58;1.33;;;1.23;;
22652;SDS011;11493;43.344;26.226;2023-11-18T06:51:31;0.80;;;0.80;;
22652;SDS011;11493;43.344;26.226;2023-11-18T06:54:03;1.98;;;1.10;;
22652;SDS011;11493;43.344;26.226;2023-11-18T06:56:37;6.93;;;2.83;;
22652;SDS011;11493;43.344;26.226;2023-11-18T06:59:05;2.30;;;1.50;;
22652;SDS011;11493;43.344;26.226;2023-11-18T07:01:37;2.60;;;1.02;;
22652;SDS011;11493;43.344;26.226;2023-11-18T07:04:04;1.60;;;1.50;;
22652;SDS011;11493;43.344;26.226;2023-11-18T07:06:35;5.63;;;1.77;;
22652;SDS011;11493;43.344;26.226;2023-11-18T07:09:05;2.28;;;1.83;;
22652;SDS011;11493;43.344;26.226;2023-11-18T07:11:48;1.55;;;1.23;;
22652;SDS011;11493;43.344;26.226;2023-11-18T07:14:15;2.45;;;1.20;;
22652;SDS011;11493;43.344;26.226;2023-11-18T07:16:43;1.10;;;1.00;;
22652;SDS011;11493;43.344;26.226;2023-11-18T07:19:11;1.10;;;1.00;;
22652;SDS011;11493;43.344;26.226;2023-11-18T07:21:48;1.55;;;1.40;;
22652;SDS011;11493;43.344;26.226;2023-11-18T07:24:16;1.20;;;1.10;;
22652;SDS011;11493;43.344;26.226;2023-11-18T07:26:44;1.05;;;0.98;;
22652;SDS011;11493;43.344;26.226;2023-11-18T07:29:12;2.05;;;1.05;;
22652;SDS011;11493;43.344;26.226;2023-11-18T07:31:39;3.17;;;1.13;;
22652;SDS011;11493;43.344;26.226;2023-11-18T07:34:06;1.58;;;1.48;;
22652;SDS011;11493;43.344;26.226;2023-11-18T07:36:33;1.33;;;1.23;;
22652;SDS011;11493;43.344;26.226;2023-11-18T07:39:00;1.40;;;1.30;;
22652;SDS011;11493;43.344;26.226;2023-11-18T07:41:32;2.67;;;1.73;;
22652;SDS011;11493;43.344;26.226;2023-11-18T07:44:00;1.88;;;1.77;;
22652;SDS011;11493;43.344;26.226;2023-11-18T07:46:28;1.80;;;1.70;;
22652;SDS011;11493;43.344;26.226;2023-11-18T07:48:58;2.63;;;2.42;;
22652;SDS011;11493;43.344;26.226;2023-11-18T07:51:26;2.65;;;2.45;;
22652;SDS011;11493;43.344;26.226;2023-11-18T07:53:53;1.23;;;1.13;;
22652;SDS011;11493;43.344;26.226;2023-11-18T07:56:20;2.05;;;1.85;;
22652;SDS011;11493;43.344;26.226;2023-11-18T07:58:50;2.58;;;2.33;;
22652;SDS011;11493;43.344;26.226;2023-11-18T08:01:19;1.55;;;1.45;;
22652;SDS011;11493;43.344;26.226;2023-11-18T08:03:48;5.43;;;1.70;;
22652;SDS011;11493;43.344;26.226;2023-11-18T08:06:18;1.42;;;1.33;;
22652;SDS011;11493;43.344;26.226;2023-11-18T08:08:45;1.52;;;1.42;;
22652;SDS011;11493;43.344;26.226;2023-11-18T08:11:14;1.42;;;1.33;;
22652;SDS011;11493;43.344;26.226;2023-11-18T08:13:41;1.20;;;1.05;;
22652;SDS011;11493;43.344;26.226;2023-11-18T08:16:10;3.47;;;2.42;;
22652;SDS011;11493;43.344;26.226;2023-11-18T08:18:39;4.03;;;1.58;;
22652;SDS011;11493;43.344;26.226;2023-11-18T08:21:07;3.45;;;1.50;;
22652;SDS011;11493;43.344;26.226;2023-11-18T08:23:34;3.70;;;2.05;;
22652;SDS011;11493;43.344;26.226;2023-11-18T08:26:03;1.25;;;1.10;;
22652;SDS011;11493;43.344;26.226;2023-11-18T08:28:32;2.40;;;1.80;;
22652;SDS011;11493;43.344;26.226;2023-11-18T08:30:59;1.63;;;0.90;;
22652;SDS011;11493;43.344;26.226;2023-11-18T08:33:28;0.90;;;0.80;;
22652;SDS011;11493;43.344;26.226;2023-11-18T08:35:55;2.30;;;1.92;;
22652;SDS011;11493;43.344;26.226;2023-11-18T08:38:23;3.72;;;2.55;;
22652;SDS011;11493;43.344;26.226;2023-11-18T08:40:51;1.00;;;0.90;;
22652;SDS011;11493;43.344;26.226;2023-11-18T08:43:18;3.80;;;2.40;;
22652;SDS011;11493;43.344;26.226;2023-11-18T08:45:48;4.00;;;2.40;;
22652;SDS011;11493;43.344;26.226;2023-11-18T08:48:16;3.88;;;3.17;;
22652;SDS011;11493;43.344;26.226;2023-11-18T08:50:45;1.42;;;1.30;;
22652;SDS011;11493;43.344;26.226;2023-11-18T08:53:13;2.47;;;1.98;;
22652;SDS011;11493;43.344;26.226;2023-11-18T08:55:45;2.15;;;1.58;;
22652;SDS011;11493;43.344;26.226;2023-11-18T08:58:21;0.93;;;0.93;;
22652;SDS011;11493;43.344;26.226;2023-11-18T09:00:49;1.83;;;1.70;;
22652;SDS011;11493;43.344;26.226;2023-11-18T09:03:22;1.92;;;1.67;;
22652;SDS011;11493;43.344;26.226;2023-11-18T09:06:05;2.38;;;2.17;;
22652;SDS011;11493;43.344;26.226;2023-11-18T09:08:45;2.70;;;1.97;;
22652;SDS011;11493;43.344;26.226;2023-11-18T09:11:23;5.45;;;3.28;;
22652;SDS011;11493;43.344;26.226;2023-11-18T09:13:53;1.77;;;1.42;;
22652;SDS011;11493;43.344;26.226;2023-11-18T09:16:24;6.05;;;4.32;;
22652;SDS011;11493;43.344;26.226;2023-11-18T09:18:57;2.85;;;1.60;;
22652;SDS011;11493;43.344;26.226;2023-11-18T09:21:30;2.35;;;1.70;;
22652;SDS011;11493;43.344;26.226;2023-11-18T09:24:02;3.00;;;1.05;;
22652;SDS011;11493;43.344;26.226;2023-11-18T09:26:32;4.28;;;2.22;;
22652;SDS011;11493;43.344;26.226;2023-11-18T09:28:59;2.00;;;1.80;;
22652;SDS011;11493;43.344;26.226;2023-11-18T09:31:28;8.02;;;2.35;;
22652;SDS011;11493;43.344;26.226;2023-11-18T09:33:56;1.90;;;1.80;;
22652;SDS011;11493;43.344;26.226;2023-11-18T09:36:24;1.35;;;1.10;;
22652;SDS011;11493;43.344;26.226;2023-11-18T09:38:55;1.98;;;1.63;;
22652;SDS011;11493;43.344;26.226;2023-11-18T09:41:23;1.77;;;1.67;;
22652;SDS011;11493;43.344;26.226;2023-11-18T09:43:54;1.23;;;1.13;;
22652;SDS011;11493;43.344;26.226;2023-11-18T09:46:24;4.80;;;2.92;;
22652;SDS011;11493;43.344;26.226;2023-11-18T09:51:45;6.18;;;1.50;;
22652;SDS011;11493;43.344;26.226;2023-11-18T09:54:27;5.45;;;3.10;;
22652;SDS011;11493;43.344;26.226;2023-11-18T09:57:09;3.00;;;2.58;;
22652;SDS011;11493;43.344;26.226;2023-11-18T09:59:54;4.30;;;2.65;;
22652;SDS011;11493;43.344;26.226;2023-11-18T10:02:40;2.20;;;2.00;;
22652;SDS011;11493;43.344;26.226;2023-11-18T10:05:08;1.30;;;1.15;;
22652;SDS011;11493;43.344;26.226;2023-11-18T10:07:41;1.35;;;1.25;;
22652;SDS011;11493;43.344;26.226;2023-11-18T10:10:09;1.77;;;1.55;;
22652;SDS011;11493;43.344;26.226;2023-11-18T10:12:45;2.88;;;2.35;;
22652;SDS011;11493;43.344;26.226;2023-11-18T10:15:20;3.05;;;2.15;;
22652;SDS011;11493;43.344;26.226;2023-11-18T10:17:52;2.92;;;2.65;;
22652;SDS011;11493;43.344;26.226;2023-11-18T10:23:05;4.85;;;2.00;;
22652;SDS011;11493;43.344;26.226;2023-11-18T10:30:55;6.53;;;2.60;;
22652;SDS011;11493;43.344;26.226;2023-11-18T10:33:30;1.98;;;1.35;;
22652;SDS011;11493;43.344;26.226;2023-11-18T10:35:59;3.08;;;1.27;;
22652;SDS011;11493;43.344;26.226;2023-11-18T10:38:31;1.27;;;1.10;;
22652;SDS011;11493;43.344;26.226;2023-11-18T10:41:00;2.08;;;1.50;;
22652;SDS011;11493;43.344;26.226;2023-11-18T10:43:32;2.22;;;1.50;;
22652;SDS011;11493;43.344;26.226;2023-11-18T10:46:06;2.55;;;2.35;;
22652;SDS011;11493;43.344;26.226;2023-11-18T10:51:10;1.73;;;1.60;;
22652;SDS011;11493;43.344;26.226;2023-11-18T10:53:41;2.15;;;1.50;;
22652;SDS011;11493;43.344;26.226;2023-11-18T10:56:19;1.52;;;1.40;;
22652;SDS011;11493;43.344;26.226;2023-11-18T10:58:57;1.90;;;1.70;;
22652;SDS011;11493;43.344;26.226;2023-11-18T11:01:35;1.63;;;1.42;;
22652;SDS011;11493;43.344;26.226;2023-11-18T11:04:11;1.00;;;1.00;;
22652;SDS011;11493;43.344;26.226;2023-11-18T11:06:43;1.85;;;1.50;;
22652;SDS011;11493;43.344;26.226;2023-11-18T11:09:20;3.38;;;2.30;;
22652;SDS011;11493;43.344;26.226;2023-11-18T11:11:55;4.63;;;2.90;;
22652;SDS011;11493;43.344;26.226;2023-11-18T11:14:35;4.55;;;2.72;;
22652;SDS011;11493;43.344;26.226;2023-11-18T11:17:13;5.55;;;3.00;;
22652;SDS011;11493;43.344;26.226;2023-11-18T11:22:38;1.30;;;1.17;;
22652;SDS011;11493;43.344;26.226;2023-11-18T11:25:25;2.70;;;1.45;;
22652;SDS011;11493;43.344;26.226;2023-11-18T11:30:46;1.42;;;1.33;;
22652;SDS011;11493;43.344;26.226;2023-11-18T11:35:57;2.90;;;2.28;;
22652;SDS011;11493;43.344;26.226;2023-11-18T11:38:29;1.35;;;1.05;;
22652;SDS011;11493;43.344;26.226;2023-11-18T11:40:58;1.80;;;1.30;;
22652;SDS011;11493;43.344;26.226;2023-11-18T11:43:31;1.60;;;1.50;;
22652;SDS011;11493;43.344;26.226;2023-11-18T11:46:01;3.00;;;1.20;;
22652;SDS011;11493;43.344;26.226;2023-11-18T11:48:37;4.80;;;1.80;;
22652;SDS011;11493;43.344;26.226;2023-11-18T11:51:11;3.83;;;1.77;;
22652;SDS011;11493;43.344;26.226;2023-11-18T11:53:55;6.00;;;1.70;;
22652;SDS011;11493;43.344;26.226;2023-11-18T11:56:46;5.93;;;2.97;;
22652;SDS011;11493;43.344;26.226;2023-11-18T11:59:34;3.72;;;2.85;;
22652;SDS011;11493;43.344;26.226;2023-11-18T12:02:05;2.42;;;1.98;;
22652;SDS011;11493;43.344;26.226;2023-11-18T12:04:34;4.82;;;2.50;;
22652;SDS011;11493;43.344;26.226;2023-11-18T12:07:08;2.97;;;2.33;;
22652;SDS011;11493;43.344;26.226;2023-11-18T12:09:46;4.18;;;2.60;;
22652;SDS011;11493;43.344;26.226;2023-11-18T12:12:17;2.53;;;2.10;;
22652;SDS011;11493;43.344;26.226;2023-11-18T12:14:49;2.75;;;1.73;;
22652;SDS011;11493;43.344;26.226;2023-11-18T12:17:18;3.10;;;2.78;;
22652;SDS011;11493;43.344;26.226;2023-11-18T12:19:48;2.85;;;2.42;;
22652;SDS011;11493;43.344;26.226;2023-11-18T12:22:17;2.72;;;2.13;;
22652;SDS011;11493;43.344;26.226;2023-11-18T12:25:28;3.28;;;2.75;;
22652;SDS011;11493;43.344;26.226;2023-11-18T12:32:57;7.53;;;4.90;;
22652;SDS011;11493;43.344;26.226;2023-11-18T12:35:27;3.17;;;2.92;;
22652;SDS011;11493;43.344;26.226;2023-11-18T12:38:08;3.00;;;2.78;;
22652;SDS011;11493;43.344;26.226;2023-11-18T12:40:54;4.57;;;3.45;;
22652;SDS011;11493;43.344;26.226;2023-11-18T12:44:08;4.32;;;2.80;;
22652;SDS011;11493;43.344;26.226;2023-11-18T12:48:47;3.88;;;3.35;;
22652;SDS011;11493;43.344;26.226;2023-11-18T12:51:18;4.22;;;3.83;;
22652;SDS011;11493;43.344;26.226;2023-11-18T12:53:49;3.30;;;3.00;;
22652;SDS011;11493;43.344;26.226;2023-11-18T12:56:17;6.85;;;4.70;;
22652;SDS011;11493;43.344;26.226;2023-11-18T12:58:46;7.50;;;5.18;;
22652;SDS011;11493;43.344;26.226;2023-11-18T13:01:14;4.82;;;4.30;;
22652;SDS011;11493;43.344;26.226;2023-11-18T13:03:42;6.25;;;4.35;;
22652;SDS011;11493;43.344;26.226;2023-11-18T13:06:11;4.18;;;2.80;;
22652;SDS011;11493;43.344;26.226;2023-11-18T13:08:38;8.40;;;3.47;;
22652;SDS011;11493;43.344;26.226;2023-11-18T13:11:06;4.10;;;3.20;;
22652;SDS011;11493;43.344;26.226;2023-11-18T13:13:39;2.33;;;2.13;;
22652;SDS011;11493;43.344;26.226;2023-11-18T13:16:07;2.78;;;2.42;;
22652;SDS011;11493;43.344;26.226;2023-11-18T13:18:44;4.03;;;3.63;;
22652;SDS011;11493;43.344;26.226;2023-11-18T13:21:14;6.82;;;4.35;;
22652;SDS011;11493;43.344;26.226;2023-11-18T13:23:46;7.72;;;3.78;;
22652;SDS011;11493;43.344;26.226;2023-11-18T13:26:21;4.72;;;3.97;;
22652;SDS011;11493;43.344;26.226;2023-11-18T13:28:49;11.25;;;6.38;;
22652;SDS011;11493;43.344;26.226;2023-11-18T13:31:17;3.63;;;3.10;;
22652;SDS011;11493;43.344;26.226;2023-11-18T13:33:47;2.60;;;2.40;;
22652;SDS011;11493;43.344;26.226;2023-11-18T13:36:18;5.25;;;3.15;;
22652;SDS011;11493;43.344;26.226;2023-11-18T13:38:47;2.97;;;2.78;;
22652;SDS011;11493;43.344;26.226;2023-11-18T13:41:27;5.25;;;2.03;;
22652;SDS011;11493;43.344;26.226;2023-11-18T13:43:58;3.65;;;2.95;;
22652;SDS011;11493;43.344;26.226;2023-11-18T13:46:26;3.53;;;3.00;;
22652;SDS011;11493;43.344;26.226;2023-11-18T13:48:53;3.65;;;2.60;;
22652;SDS011;11493;43.344;26.226;2023-11-18T13:51:20;7.85;;;2.95;;
22652;SDS011;11493;43.344;26.226;2023-11-18T13:53:48;3.95;;;2.85;;
22652;SDS011;11493;43.344;26.226;2023-11-18T13:56:15;4.15;;;3.75;;
22652;SDS011;11493;43.344;26.226;2023-11-18T13:58:45;5.03;;;3.65;;
22652;SDS011;11493;43.344;26.226;2023-11-18T14:01:13;24.50;;;10.70;;
22652;SDS011;11493;43.344;26.226;2023-11-18T14:03:42;30.65;;;11.98;;
22652;SDS011;11493;43.344;26.226;2023-11-18T14:06:10;26.48;;;10.18;;
22652;SDS011;11493;43.344;26.226;2023-11-18T14:08:38;48.88;;;16.15;;
22652;SDS011;11493;43.344;26.226;2023-11-18T14:11:06;39.42;;;14.80;;
22652;SDS011;11493;43.344;26.226;2023-11-18T14:13:43;23.65;;;8.77;;
22652;SDS011;11493;43.344;26.226;2023-11-18T14:16:11;21.23;;;8.95;;
22652;SDS011;11493;43.344;26.226;2023-11-18T14:18:40;9.20;;;4.38;;
22652;SDS011;11493;43.344;26.226;2023-11-18T14:21:09;11.77;;;6.45;;
22652;SDS011;11493;43.344;26.226;2023-11-18T14:23:36;7.05;;;4.78;;
22652;SDS011;11493;43.344;26.226;2023-11-18T14:26:06;14.63;;;7.20;;
22652;SDS011;11493;43.344;26.226;2023-11-18T14:28:37;5.25;;;3.58;;
22652;SDS011;11493;43.344;26.226;2023-11-18T14:31:04;4.80;;;3.67;;
22652;SDS011;11493;43.344;26.226;2023-11-18T14:33:31;4.60;;;2.75;;
22652;SDS011;11493;43.344;26.226;2023-11-18T14:35:59;3.00;;;2.30;;
22652;SDS011;11493;43.344;26.226;2023-11-18T14:38:33;3.20;;;2.85;;
22652;SDS011;11493;43.344;26.226;2023-11-18T14:41:01;4.28;;;3.70;;
22652;SDS011;11493;43.344;26.226;2023-11-18T14:43:29;2.80;;;2.53;;
22652;SDS011;11493;43.344;26.226;2023-11-18T14:45:56;5.75;;;4.50;;
22652;SDS011;11493;43.344;26.226;2023-11-18T14:48:24;3.40;;;2.85;;
22652;SDS011;11493;43.344;26.226;2023-11-18T14:50:52;3.38;;;2.65;;
22652;SDS011;11493;43.344;26.226;2023-11-18T14:53:19;5.53;;;2.60;;
22652;SDS011;11493;43.344;26.226;2023-11-18T14:55:46;3.33;;;2.92;;
22652;SDS011;11493;43.344;26.226;2023-11-18T14:58:13;4.22;;;3.25;;
22652;SDS011;11493;43.344;26.226;2023-11-18T15:00:40;6.88;;;4.25;;
22652;SDS011;11493;43.344;26.226;2023-11-18T15:03:09;5.30;;;4.13;;
22652;SDS011;11493;43.344;26.226;2023-11-18T15:05:37;5.15;;;3.90;;
22652;SDS011;11493;43.344;26.226;2023-11-18T15:08:05;5.38;;;4.88;;
22652;SDS011;11493;43.344;26.226;2023-11-18T15:13:06;3.47;;;3.03;;
22652;SDS011;11493;43.344;26.226;2023-11-18T15:15:33;4.25;;;3.85;;
22652;SDS011;11493;43.344;26.226;2023-11-18T15:18:02;4.75;;;3.42;;
22652;SDS011;11493;43.344;26.226;2023-11-18T15:20:32;5.30;;;3.70;;